createdAt,value
2022-12-01T00:00:08.211Z,94.60
2022-12-01T00:04:11.332Z,85.40
2022-12-01T00:08:15.430Z,92.83
2022-12-01T00:12:18.133Z,79.97
2022-12-01T00:16:21.207Z,63.40
2022-12-01T00:20:24.219Z,92.07
2022-12-01T00:24:28.419Z,76.30
2022-12-01T00:28:31.122Z,78.27
2022-12-01T00:32:33.939Z,80.20
2022-12-01T00:36:36.625Z,91.60
2022-12-01T00:40:40.670Z,105.17
2022-12-01T00:44:44.596Z,110.40
2022-12-01T00:48:47.543Z,101.00
2022-12-01T00:52:50.290Z,102.97
2022-12-01T00:56:54.326Z,85.23
2022-12-01T01:01:02.615Z,103.90
2022-12-01T01:05:06.351Z,81.00
2022-12-01T01:09:09.059Z,103.30
2022-12-01T01:13:14.039Z,86.50
2022-12-01T01:17:16.780Z,120.63
2022-12-01T01:21:22.116Z,98.77
2022-12-01T01:25:24.825Z,100.10
2022-12-01T01:29:28.927Z,99.27
2022-12-01T01:33:31.613Z,105.03
2022-12-01T01:37:34.399Z,96.80
2022-12-01T01:41:37.126Z,97.13
2022-12-01T01:45:41.331Z,102.07
2022-12-01T01:49:44.201Z,82.00
2022-12-01T01:53:47.832Z,79.27
2022-12-01T01:57:51.020Z,84.23
2022-12-01T02:02:01.524Z,97.97
2022-12-01T02:06:05.342Z,85.00
2022-12-01T02:10:11.992Z,81.03
2022-12-01T02:14:40.666Z,75.97
2022-12-01T02:18:51.541Z,71.77
2022-12-01T02:23:15.634Z,78.60
2022-12-01T02:27:30.707Z,85.47
2022-12-01T02:31:40.960Z,86.57
2022-12-01T02:35:49.536Z,79.47
2022-12-01T02:39:59.046Z,78.37
2022-12-01T02:44:09.000Z,104.73
2022-12-01T02:48:20.232Z,74.23
2022-12-01T02:52:26.908Z,102.27
2022-12-01T02:56:30.117Z,99.13
2022-12-01T03:00:33.197Z,100.03
2022-12-01T03:04:51.855Z,78.30
2022-12-01T03:09:06.120Z,119.30
2022-12-01T03:13:19.717Z,100.20
2022-12-01T03:17:29.515Z,103.77
2022-12-01T03:21:37.076Z,98.10
2022-12-01T03:25:43.073Z,111.00
2022-12-01T03:29:49.615Z,98.83
2022-12-01T03:33:59.047Z,99.70
2022-12-01T03:38:07.807Z,91.80
2022-12-01T03:42:17.672Z,83.93
2022-12-01T03:46:26.533Z,73.67
2022-12-01T03:50:37.695Z,74.03
2022-12-01T03:54:53.062Z,69.90
2022-12-01T03:58:58.530Z,64.90
2022-12-01T04:03:04.239Z,61.17
2022-12-01T04:07:07.211Z,54.17
2022-12-01T04:11:29.465Z,59.53
2022-12-01T04:15:35.060Z,52.53
2022-12-01T04:19:37.767Z,53.10
2022-12-01T04:23:57.851Z,58.30
2022-12-01T04:28:01.909Z,56.50
2022-12-01T04:32:04.968Z,57.20
2022-12-01T04:36:08.328Z,64.40
2022-12-01T04:40:12.138Z,56.87
2022-12-01T04:44:16.475Z,63.00
2022-12-01T04:48:19.195Z,58.47
2022-12-01T04:52:21.922Z,56.97
2022-12-01T04:56:24.799Z,58.57
2022-12-01T05:00:28.962Z,55.50
2022-12-01T05:04:33.856Z,59.90
2022-12-01T05:08:36.636Z,58.83
2022-12-01T05:12:41.018Z,65.73
2022-12-01T05:16:45.173Z,60.37
2022-12-01T05:21:00.151Z,65.93
2022-12-01T05:25:02.847Z,56.83
2022-12-01T05:29:06.154Z,57.07
2022-12-01T05:33:10.249Z,57.00
2022-12-01T05:37:12.949Z,60.13
2022-12-01T05:41:15.708Z,60.87
2022-12-01T05:45:18.549Z,60.47
2022-12-01T05:49:22.614Z,60.33
2022-12-01T05:53:25.413Z,58.40
2022-12-01T05:57:28.344Z,62.93
2022-12-01T06:01:31.116Z,63.00
2022-12-01T06:05:35.214Z,59.37
2022-12-01T06:09:37.999Z,54.20
2022-12-01T06:13:40.804Z,60.53
2022-12-01T06:17:43.531Z,64.80
2022-12-01T06:21:47.597Z,63.13
2022-12-01T06:25:50.514Z,59.40
2022-12-01T06:29:53.472Z,65.67
2022-12-01T06:33:56.376Z,58.67
2022-12-01T06:38:00.471Z,61.90
2022-12-01T06:42:03.210Z,65.53
2022-12-01T06:46:06.636Z,63.27
2022-12-01T06:50:11.794Z,59.37
2022-12-01T06:54:17.776Z,57.23
2022-12-01T06:58:20.571Z,50.57
2022-12-01T07:02:23.871Z,57.07
2022-12-01T07:06:26.618Z,54.13
2022-12-01T07:10:30.729Z,56.67
2022-12-01T07:14:33.564Z,56.77
2022-12-01T07:18:37.043Z,56.93
2022-12-01T07:22:39.977Z,55.80
2022-12-01T07:26:44.637Z,49.63
2022-12-01T07:30:47.440Z,60.97
2022-12-01T07:34:50.223Z,53.47
2022-12-01T07:38:52.961Z,49.67
2022-12-01T07:42:57.053Z,51.07
2022-12-01T07:46:59.787Z,55.00
2022-12-01T07:51:02.966Z,55.23
2022-12-01T07:55:06.443Z,52.33
2022-12-01T07:59:11.874Z,53.10
2022-12-01T08:03:15.034Z,52.57
2022-12-01T08:07:18.970Z,54.33
2022-12-01T08:11:23.376Z,59.70
2022-12-01T08:15:27.512Z,52.77
2022-12-01T08:19:30.310Z,48.47
2022-12-01T08:23:33.392Z,49.07
2022-12-01T08:27:36.573Z,49.37
2022-12-01T08:31:40.707Z,51.17
2022-12-01T08:35:43.486Z,51.87
2022-12-01T08:39:46.158Z,55.53
2022-12-01T08:43:58.018Z,55.20
2022-12-01T08:48:02.767Z,54.67
2022-12-01T08:52:05.726Z,53.77
2022-12-01T08:56:12.062Z,52.63
2022-12-01T09:00:15.919Z,53.67
2022-12-01T09:04:20.911Z,54.53
2022-12-01T09:08:32.620Z,46.67
2022-12-01T09:12:35.411Z,50.27
2022-12-01T09:16:38.388Z,55.47
2022-12-01T09:20:42.685Z,52.67
2022-12-01T09:24:45.844Z,50.63
2022-12-01T09:28:53.367Z,46.33
2022-12-01T09:32:56.190Z,52.50
2022-12-01T09:37:00.677Z,52.13
2022-12-01T09:41:06.962Z,43.97
2022-12-01T09:45:23.638Z,49.43
2022-12-01T09:49:30.439Z,52.13
2022-12-01T09:53:34.509Z,50.00
2022-12-01T09:57:40.327Z,45.27
2022-12-01T10:01:45.804Z,50.80
2022-12-01T10:06:25.840Z,51.43
2022-12-01T10:10:26.157Z,53.27
2022-12-01T10:14:34.771Z,51.30
2022-12-01T10:18:52.692Z,46.63
2022-12-01T10:23:14.278Z,43.47
2022-12-01T10:27:40.788Z,46.40
2022-12-01T10:31:52.790Z,44.83
2022-12-01T10:35:55.748Z,45.90
2022-12-01T10:39:59.629Z,43.83
2022-12-01T10:44:05.692Z,45.57
2022-12-01T10:48:15.039Z,42.67
2022-12-01T10:52:42.561Z,43.70
2022-12-01T10:56:49.318Z,46.10
2022-12-01T11:01:00.713Z,42.00
2022-12-01T11:05:07.365Z,43.70
2022-12-01T11:09:25.971Z,46.47
2022-12-01T11:13:32.049Z,40.17
2022-12-01T11:17:39.954Z,39.37
2022-12-01T11:21:48.554Z,37.20
2022-12-01T11:25:59.649Z,37.03
2022-12-01T11:30:05.777Z,35.10
2022-12-01T11:34:19.665Z,37.70
2022-12-01T11:38:31.304Z,39.33
2022-12-01T11:42:36.902Z,39.30
2022-12-01T11:46:50.077Z,41.20
2022-12-01T11:51:07.067Z,34.37
2022-12-01T11:55:22.879Z,34.20
2022-12-01T11:59:28.271Z,36.60
2022-12-01T12:03:41.355Z,43.67
2022-12-01T12:07:56.814Z,43.03
2022-12-01T12:12:16.437Z,42.93
2022-12-01T12:16:31.919Z,38.03
2022-12-01T12:20:52.612Z,37.53
2022-12-01T12:25:08.399Z,39.37
2022-12-01T12:29:35.729Z,45.97
2022-12-01T12:34:11.901Z,45.23
2022-12-01T12:38:33.454Z,43.07
2022-12-01T12:42:48.340Z,40.23
2022-12-01T12:47:00.593Z,47.93
2022-12-01T12:51:13.471Z,37.80
2022-12-01T12:55:23.941Z,50.77
2022-12-01T12:59:35.682Z,48.83
2022-12-01T13:03:46.522Z,58.63
2022-12-01T13:07:54.769Z,63.60
2022-12-01T13:12:03.637Z,65.50
2022-12-01T13:16:14.639Z,64.23
2022-12-01T13:20:20.831Z,67.10
2022-12-01T13:24:26.524Z,57.40
2022-12-01T13:28:39.146Z,63.93
2022-12-01T13:32:43.927Z,64.07
2022-12-01T13:36:51.205Z,61.27
2022-12-01T13:41:22.379Z,54.57
2022-12-01T13:45:25.481Z,56.77
2022-12-01T13:49:39.685Z,61.63
2022-12-01T13:53:58.694Z,60.90
2022-12-01T13:58:41.099Z,65.77
2022-12-01T14:02:44.366Z,65.13
2022-12-01T14:06:50.264Z,63.93
2022-12-01T14:10:55.838Z,61.97
2022-12-01T14:15:01.688Z,58.73
2022-12-01T14:19:04.924Z,64.77
2022-12-01T14:23:21.303Z,55.83
2022-12-01T14:27:35.849Z,60.27
2022-12-01T14:32:24.812Z,63.43
2022-12-01T14:36:39.386Z,57.27
2022-12-01T14:40:45.296Z,66.80
2022-12-01T14:44:51.405Z,63.47
2022-12-01T14:48:56.463Z,61.90
2022-12-01T14:53:07.643Z,66.00
2022-12-01T14:57:16.967Z,66.23
2022-12-01T15:01:23.379Z,65.27
2022-12-01T15:05:29.477Z,70.83
2022-12-01T15:09:34.148Z,77.83
2022-12-01T15:13:49.432Z,64.73
2022-12-01T15:17:55.450Z,78.80
2022-12-01T15:21:58.692Z,78.93
2022-12-01T15:26:01.846Z,70.77
2022-12-01T15:30:07.911Z,77.50
2022-12-01T15:34:16.330Z,74.57
2022-12-01T15:38:22.962Z,64.97
2022-12-01T15:42:29.421Z,69.80
2022-12-01T15:46:35.573Z,78.90
2022-12-01T15:50:46.168Z,66.90
2022-12-01T15:54:51.374Z,75.60
2022-12-01T15:59:00.200Z,78.53
2022-12-01T16:03:04.939Z,79.20
2022-12-01T16:07:10.709Z,72.23
2022-12-01T16:11:15.900Z,75.43
2022-12-01T16:15:22.714Z,74.70
2022-12-01T16:19:31.719Z,70.00
2022-12-01T16:23:34.676Z,61.53
2022-12-01T16:27:38.038Z,65.63
2022-12-01T16:31:58.502Z,72.53
2022-12-01T16:36:06.103Z,64.17
2022-12-01T16:40:11.403Z,70.90
2022-12-01T16:44:28.443Z,72.93
2022-12-01T16:48:32.314Z,72.97
2022-12-01T16:52:45.651Z,67.37
2022-12-01T16:56:49.446Z,67.53
2022-12-01T17:00:53.725Z,60.47
2022-12-01T17:04:57.056Z,68.70
2022-12-01T17:09:01.972Z,62.90
2022-12-01T17:13:05.172Z,61.27
2022-12-01T17:17:08.339Z,66.57
2022-12-01T17:21:12.418Z,68.70
2022-12-01T17:25:16.967Z,63.33
2022-12-01T17:29:20.083Z,66.40
2022-12-01T17:33:23.954Z,65.30
2022-12-01T17:37:28.010Z,65.97
2022-12-01T17:41:35.660Z,71.17
2022-12-01T17:45:41.854Z,68.70
2022-12-01T17:49:44.810Z,63.93
2022-12-01T17:53:47.906Z,68.63
2022-12-01T17:57:52.770Z,72.10
2022-12-01T18:01:55.867Z,72.10
2022-12-01T18:06:00.218Z,77.27
2022-12-01T18:10:03.318Z,72.20
2022-12-01T18:14:07.656Z,75.13
2022-12-01T18:18:12.093Z,73.00
2022-12-01T18:22:14.966Z,73.47
2022-12-01T18:26:19.463Z,76.97
2022-12-01T18:30:23.535Z,88.63
2022-12-01T18:34:29.441Z,77.87
2022-12-01T18:38:32.351Z,82.67
2022-12-01T18:42:35.089Z,83.90
2022-12-01T18:46:39.304Z,86.97
2022-12-01T18:50:42.067Z,80.77
2022-12-01T18:54:44.836Z,79.17
2022-12-01T18:58:47.536Z,72.53
2022-12-01T19:02:51.603Z,77.83
2022-12-01T19:06:55.116Z,73.60
2022-12-01T19:11:02.150Z,69.03
2022-12-01T19:15:05.726Z,61.07
2022-12-01T19:19:10.623Z,56.70
2022-12-01T19:23:13.381Z,63.07
2022-12-01T19:27:16.151Z,55.40
2022-12-01T19:31:22.583Z,58.77
2022-12-01T19:35:27.492Z,69.83
2022-12-01T19:39:30.241Z,64.23
2022-12-01T19:43:34.988Z,59.77
2022-12-01T19:47:38.461Z,64.27
2022-12-01T19:51:42.530Z,60.10
2022-12-01T19:55:45.234Z,62.00
2022-12-01T19:59:47.940Z,58.93
2022-12-01T20:03:52.429Z,66.80
2022-12-01T20:07:56.703Z,65.27
2022-12-01T20:11:59.470Z,60.77
2022-12-01T20:16:04.053Z,65.50
2022-12-01T20:20:08.238Z,64.77
2022-12-01T20:24:14.995Z,67.33
2022-12-01T20:28:17.893Z,60.87
2022-12-01T20:32:23.480Z,62.63
2022-12-01T20:36:27.188Z,63.53
2022-12-01T20:40:31.386Z,65.00
2022-12-01T20:44:34.493Z,57.97
2022-12-01T20:48:37.382Z,59.17
2022-12-01T20:52:40.765Z,58.20
2022-12-01T20:56:44.909Z,50.67
2022-12-01T21:00:49.884Z,59.97
2022-12-01T21:04:56.387Z,60.63
2022-12-01T21:09:02.404Z,50.40
2022-12-01T21:13:36.081Z,56.57
2022-12-01T21:17:43.132Z,64.10
2022-12-01T21:21:46.022Z,57.70
2022-12-01T21:25:51.177Z,54.87
2022-12-01T21:29:56.665Z,57.47
2022-12-01T21:33:59.411Z,58.03
2022-12-01T21:38:05.218Z,51.60
2022-12-01T21:42:28.127Z,46.37
2022-12-01T21:46:32.483Z,49.73
2022-12-01T21:50:35.201Z,50.50
2022-12-01T21:54:38.012Z,48.77
2022-12-01T21:58:40.894Z,45.70
2022-12-01T22:02:50.610Z,47.83
2022-12-01T22:06:54.930Z,51.63
2022-12-01T22:11:01.119Z,53.77
2022-12-01T22:15:28.930Z,53.53
2022-12-01T22:19:34.728Z,51.53
2022-12-01T22:23:37.452Z,52.70
2022-12-01T22:27:40.674Z,58.07
2022-12-01T22:31:43.420Z,55.33
2022-12-01T22:35:49.135Z,49.63
2022-12-01T22:39:55.820Z,53.50
2022-12-01T22:44:00.554Z,57.37
2022-12-01T22:48:03.423Z,56.23
2022-12-01T22:52:17.048Z,58.57
2022-12-01T22:56:28.548Z,55.63
2022-12-01T23:00:31.443Z,62.93
2022-12-01T23:04:39.294Z,52.57
2022-12-01T23:08:43.367Z,48.63
2022-12-01T23:12:47.652Z,56.67
2022-12-01T23:16:53.340Z,52.00
2022-12-01T23:20:57.978Z,45.03
2022-12-01T23:25:10.460Z,43.30
2022-12-01T23:29:13.690Z,42.03
2022-12-01T23:33:20.524Z,44.70
2022-12-01T23:37:35.074Z,46.80
2022-12-01T23:41:41.868Z,47.40
2022-12-01T23:45:45.326Z,50.57
2022-12-01T23:49:53.059Z,47.10
2022-12-01T23:53:57.515Z,49.63
2022-12-01T23:58:03.695Z,46.53
